Time;durP1;ratioP1;P1;durP2;ratioP2;P2;SDS_P1;SDS_P2;PMS_P1;PMS_P2;Temp;Humidity;BMP_temperature;BMP_pressure;BME280_temperature;BME280_humidity;BME280_pressure;Samples;Min_cycle;Max_cycle;Signal;HPM_P1;HPM_P2
2022/06/09 00:01:28;;;;;;;3.77;3.10;;;15.00;98.20;;;13.92;91.17;97289.75;4974752;28;20463;-79
2022/06/09 00:04:03;;;;;;;5.50;3.30;;;15.00;97.50;;;13.90;91.43;97285.66;4979517;28;20478;-78
2022/06/09 00:06:35;;;;;;;4.73;3.13;;;14.90;98.10;;;13.88;91.60;97294.06;4980824;28;20468;-83
2022/06/09 00:09:04;;;;;;;4.73;3.60;;;14.90;97.80;;;14.25;90.06;97292.53;4976066;28;20466;-81
2022/06/09 00:11:37;;;;;;;3.70;3.10;;;15.10;97.90;;;14.15;89.98;97294.06;4971604;28;20466;-82
2022/06/09 00:14:06;;;;;;;4.20;2.87;;;15.10;96.80;;;14.12;90.34;97301.91;4973183;28;20467;-81
2022/06/09 00:16:33;;;;;;;3.90;3.57;;;15.10;97.30;;;13.97;90.94;97297.13;4974889;28;20841;-81
2022/06/09 00:19:02;;;;;;;3.43;3.07;;;15.00;97.30;;;14.14;90.20;97302.47;4976737;28;20448;-83
2022/06/09 00:21:29;;;;;;;3.83;3.53;;;15.10;97.30;;;14.23;90.42;97306.34;4975492;28;20967;-81
2022/06/09 00:23:56;;;;;;;4.90;3.37;;;15.10;97.40;;;13.90;90.09;97253.09;4979200;28;20468;-79
2022/06/09 00:26:23;;;;;;;4.20;3.70;;;15.20;97.30;;;14.17;89.99;97302.78;4969343;28;20469;-83
2022/06/09 00:28:51;;;;;;;4.37;3.80;;;15.20;96.40;;;14.35;88.63;97302.66;4975592;28;20478;-81
2022/06/09 00:31:18;;;;;;;4.20;3.90;;;15.30;96.00;;;14.49;88.75;97303.09;4974414;28;20561;-81
2022/06/09 00:33:46;;;;;;;4.87;3.60;;;15.40;95.70;;;14.53;88.58;97299.56;4980424;28;20496;-78
2022/06/09 00:36:15;;;;;;;4.10;3.30;;;15.40;95.70;;;14.33;88.73;97307.53;4973167;28;20970;-79
2022/06/09 00:38:42;;;;;;;3.80;3.50;;;15.40;95.20;;;14.22;89.85;97307.44;4978022;28;20464;-78
2022/06/09 00:41:09;;;;;;;4.40;4.00;;;15.20;96.20;;;14.14;90.67;97303.28;4974457;28;20869;-77
2022/06/09 00:43:37;;;;;;;5.03;3.90;;;15.10;97.50;;;14.02;90.49;97303.44;4977662;28;20458;-79
2022/06/09 00:46:15;;;;;;;5.80;3.80;;;15.00;97.20;;;14.02;90.35;97305.31;4976252;28;20951;-78
2022/06/09 00:48:45;;;;;;;4.10;3.80;;;15.00;97.10;;;13.99;90.03;97303.97;4980111;28;22497;-77
2022/06/09 00:51:33;;;;;;;4.57;4.03;;;15.00;97.00;;;13.99;91.06;97312.09;4976522;28;20515;-77
2022/06/09 00:54:07;;;;;;;4.00;3.53;;;15.00;97.20;;;13.97;90.83;97313.44;4985569;28;20489;-79
2022/06/09 00:56:41;;;;;;;5.33;4.90;;;15.00;97.70;;;13.86;91.56;97305.16;4975393;28;20471;-78
2022/06/09 00:59:12;;;;;;;5.07;4.67;;;14.90;98.40;;;14.11;92.58;97314.66;4973128;28;20545;-76
2022/06/09 01:01:39;;;;;;;7.17;4.50;;;15.00;99.90;;;14.20;92.09;97322.38;4972974;28;20468;-80
2022/06/09 01:04:11;;;;;;;4.77;4.40;;;15.10;99.80;;;14.06;93.44;97325.50;4986545;28;20550;-76
2022/06/09 01:06:46;;;;;;;5.50;4.80;;;15.10;99.90;;;13.85;93.03;97322.53;4971185;28;20471;-80
2022/06/09 01:09:16;;;;;;;5.40;4.47;;;14.90;99.90;;;13.91;93.62;97319.88;4977424;28;21206;-78
2022/06/09 01:11:47;;;;;;;6.70;5.63;;;14.90;99.90;;;13.76;94.13;97318.63;4980633;28;20463;-79
2022/06/09 01:14:17;;;;;;;4.80;4.40;;;14.80;99.90;;;13.83;93.78;97324.69;4979909;28;20471;-78
2022/06/09 01:17:00;;;;;;;6.40;5.80;;;14.80;99.90;;;13.70;94.22;97325.91;4973094;28;20588;-77
2022/06/09 01:20:01;;;;;;;6.07;5.43;;;14.70;99.90;;;13.78;94.27;97323.78;4976378;28;20495;-79
2022/06/09 01:23:03;;;;;;;6.20;5.60;;;14.70;99.90;;;13.43;95.07;97325.78;4973597;28;21243;-79
2022/06/09 01:27:00;;;;;;;6.27;5.77;;;14.50;99.90;;;13.53;95.41;97325.13;4975013;28;20544;-79
2022/06/09 01:29:45;;;;;;;5.93;5.50;;;14.50;99.90;;;13.45;95.61;97329.09;4943033;28;20588;-77
2022/06/09 01:32:23;;;;;;;6.43;5.83;;;14.50;99.90;;;13.44;95.24;97327.47;4896500;28;20467;-76
2022/06/09 01:35:03;;;;;;;6.30;5.70;;;14.40;99.90;;;13.41;96.11;97330.63;4970668;28;20869;-78
2022/06/09 01:37:36;;;;;;;6.37;5.87;;;14.40;99.90;;;13.30;96.33;97333.22;4974216;28;20511;-78
2022/06/09 01:40:07;;;;;;;12.77;5.97;;;14.30;99.90;;;13.29;96.08;97336.16;4977510;28;20473;-77
2022/06/09 01:42:38;;;;;;;6.30;5.70;;;14.30;99.90;;;13.26;95.82;97333.97;4979341;28;20901;-78
2022/06/09 01:45:10;;;;;;;7.07;6.40;;;14.30;99.90;;;13.28;96.29;97332.66;4972183;28;20469;-79
2022/06/09 01:47:50;;;;;;;7.57;6.90;;;14.30;99.90;;;13.38;95.58;97340.09;4972864;28;22210;-79
2022/06/09 01:50:25;;;;;;;6.67;6.17;;;14.40;99.90;;;13.40;95.12;97342.56;4973391;28;20878;-75
2022/06/09 01:52:54;;;;;;;7.13;6.43;;;14.40;99.90;;;13.36;95.26;97336.00;4977332;28;20481;-77
2022/06/09 01:55:25;;;;;;;6.27;5.77;;;14.40;99.90;;;13.43;94.83;97342.91;4973058;28;20493;-78
2022/06/09 01:57:58;;;;;;;6.07;5.53;;;14.40;99.90;;;13.48;94.30;97344.88;4970455;28;20984;-77
2022/06/09 02:00:27;;;;;;;6.10;5.57;;;14.50;99.90;;;13.44;94.51;97344.56;4970713;28;20899;-77
2022/06/09 02:03:02;;;;;;;6.23;5.63;;;14.50;99.90;;;13.58;93.83;97342.31;4973685;28;20569;-76
2022/06/09 02:05:35;;;;;;;6.83;5.77;;;14.50;99.90;;;13.53;93.26;97342.22;4969319;28;20559;-76
2022/06/09 02:08:06;;;;;;;6.73;6.10;;;14.50;99.90;;;13.40;94.05;97342.56;4973376;28;20463;-78
2022/06/09 02:10:37;;;;;;;6.20;5.70;;;14.40;99.90;;;13.41;94.17;97336.88;4970888;28;20471;-77
2022/06/09 02:13:09;;;;;;;5.57;5.17;;;14.40;99.90;;;13.50;93.98;97348.16;4972138;28;20462;-77
2022/06/09 02:15:42;;;;;;;5.87;5.37;;;14.40;99.90;;;13.24;93.40;97296.22;4969850;28;20614;-78
2022/06/09 02:18:14;;;;;;;6.40;5.63;;;14.50;99.90;;;13.45;94.39;97350.81;4974822;28;20582;-77
2022/06/09 02:21:02;;;;;;;6.63;6.03;;;14.50;99.90;;;13.39;94.15;97351.75;4986046;28;20868;-77
2022/06/09 02:23:29;;;;;;;6.47;5.73;;;14.40;99.90;;;13.49;93.98;97357.38;4972545;28;20547;-77
2022/06/09 02:25:57;;;;;;;6.47;5.60;;;14.40;99.90;;;13.55;93.69;97356.34;4970651;28;20492;-77
2022/06/09 02:28:24;;;;;;;6.43;5.90;;;14.50;99.90;;;13.14;93.92;97304.25;4973718;28;20471;-77
2022/06/09 02:30:51;;;;;;;5.77;5.37;;;14.50;99.90;;;13.24;94.48;97355.91;4977039;28;20557;-76
2022/06/09 02:33:21;;;;;;;5.70;5.30;;;14.30;99.90;;;13.12;95.44;97353.28;4972966;28;20778;-76
2022/06/09 02:35:48;;;;;;;5.60;5.17;;;14.20;99.90;;;13.19;95.57;97358.53;4970073;28;20463;-77
2022/06/09 02:38:18;;;;;;;5.63;5.10;;;14.20;99.90;;;13.17;95.36;97355.25;4983371;28;20597;-77
2022/06/09 02:40:46;;;;;;;6.40;5.90;;;14.20;99.90;;;13.10;95.31;97360.84;4973048;28;20490;-76
2022/06/09 02:43:14;;;;;;;6.53;6.03;;;14.20;99.90;;;13.04;95.96;97359.97;4973743;28;20554;-78
2022/06/09 02:45:42;;;;;;;6.33;5.83;;;14.10;99.90;;;13.16;95.09;97365.28;4971801;28;20931;-77
2022/06/09 02:48:12;;;;;;;9.30;5.83;;;14.10;99.90;;;12.83;96.03;97345.25;4972424;28;20465;-76
2022/06/09 02:50:42;;;;;;;6.33;5.83;;;14.10;99.90;;;13.08;95.78;97367.59;4971321;28;20459;-77
2022/06/09 02:53:10;;;;;;;6.40;5.80;;;14.10;99.90;;;13.08;95.63;97368.44;4974058;28;20589;-77
2022/06/09 02:55:37;;;;;;;6.00;5.50;;;14.10;99.90;;;13.04;95.51;97368.09;4969271;28;20458;-78
2022/06/09 02:58:05;;;;;;;7.20;6.30;;;14.10;99.90;;;13.02;95.60;97361.25;4971819;28;20489;-79
2022/06/09 03:00:33;;;;;;;6.50;5.90;;;14.00;99.90;;;13.06;95.03;97370.56;4973221;28;20474;-77
2022/06/09 03:03:04;;;;;;;7.40;5.67;;;14.10;99.90;;;13.10;95.05;97365.44;4978045;28;20458;-78
2022/06/09 03:05:34;;;;;;;5.60;5.10;;;14.10;99.90;;;13.18;94.88;97367.75;4972044;28;20474;-78
2022/06/09 03:08:03;;;;;;;5.83;5.33;;;14.10;99.90;;;13.06;95.66;97372.44;4974920;28;20462;-79
2022/06/09 03:10:31;;;;;;;6.30;5.80;;;14.10;99.90;;;13.14;94.98;97369.34;4977298;28;20590;-78
2022/06/09 03:13:00;;;;;;;5.80;5.30;;;14.10;99.90;;;13.13;95.16;97370.41;4975767;28;20474;-77
2022/06/09 03:15:29;;;;;;;6.90;5.00;;;14.10;99.90;;;13.12;94.39;97366.06;4970495;28;20475;-75
2022/06/09 03:17:57;;;;;;;6.30;5.80;;;14.20;99.90;;;13.20;94.17;97357.47;4973773;28;20493;-76
2022/06/09 03:20:29;;;;;;;5.73;5.23;;;14.20;99.90;;;13.12;94.38;97363.34;4976269;28;20458;-76
2022/06/09 03:22:57;;;;;;;5.90;5.50;;;14.20;99.90;;;13.06;94.94;97364.31;4972350;28;20476;-78
2022/06/09 03:25:26;;;;;;;6.57;6.07;;;14.10;99.90;;;12.99;95.22;97356.34;4973468;28;20463;-76
2022/06/09 03:27:53;;;;;;;5.27;4.90;;;14.10;99.90;;;13.21;94.60;97371.88;4971755;28;20473;-79
2022/06/09 03:30:21;;;;;;;5.60;5.20;;;14.10;99.90;;;13.09;94.84;97380.06;4972734;28;20473;-79
2022/06/09 03:32:49;;;;;;;6.20;5.67;;;14.20;99.90;;;13.30;94.48;97373.91;5004372;28;20489;-82
2022/06/09 03:35:16;;;;;;;5.93;5.43;;;14.20;99.90;;;13.18;94.27;97356.91;4973133;28;20911;-78
2022/06/09 03:37:44;;;;;;;7.20;5.30;;;14.20;99.90;;;13.23;94.01;97375.97;4976392;28;20491;-78
2022/06/09 03:40:15;;;;;;;6.30;5.73;;;14.30;99.90;;;13.37;94.12;97372.91;4977861;28;20530;-77
2022/06/09 03:42:43;;;;;;;6.00;5.47;;;14.30;99.90;;;13.53;91.94;97380.22;4975775;28;20457;-78
2022/06/09 03:45:12;;;;;;;6.00;5.40;;;14.40;99.00;;;13.29;92.46;97357.88;4974762;28;20574;-78
2022/06/09 03:47:40;;;;;;;5.70;5.27;;;14.40;98.50;;;13.44;93.08;97382.53;4986822;28;20814;-77
2022/06/09 03:50:13;;;;;;;4.90;4.50;;;14.40;99.70;;;13.43;92.60;97385.50;4995830;28;20465;-76
2022/06/09 03:52:40;;;;;;;6.17;5.67;;;14.40;98.70;;;13.25;93.01;97387.38;5003588;28;20523;-77
2022/06/09 03:55:08;;;;;;;5.20;4.90;;;14.30;98.90;;;13.25;93.57;97387.38;4978993;28;20476;-77
2022/06/09 03:57:36;;;;;;;5.90;5.40;;;14.30;99.90;;;13.51;92.65;97382.38;4986675;28;20563;-76
2022/06/09 04:00:07;;;;;;;6.03;5.50;;;14.40;99.90;;;13.48;92.00;97384.75;4973883;28;20473;-78
2022/06/09 04:02:35;;;;;;;6.30;5.00;;;14.40;98.70;;;13.58;91.96;97388.44;5021365;28;20480;-78
2022/06/09 04:05:03;;;;;;;6.37;5.77;;;14.50;98.60;;;13.50;91.31;97388.88;4987523;28;20457;-77
2022/06/09 04:07:30;;;;;;;5.33;4.93;;;14.50;97.10;;;13.41;92.19;97390.31;4984536;28;20462;-79
2022/06/09 04:09:57;;;;;;;6.53;5.93;;;14.50;97.80;;;13.37;92.54;97392.72;4994163;28;20494;-75
2022/06/09 04:12:24;;;;;;;6.97;6.23;;;14.40;98.50;;;13.27;92.81;97404.25;4977019;28;20954;-77
2022/06/09 04:14:52;;;;;;;6.93;6.10;;;14.30;98.30;;;13.23;93.82;97394.94;4982119;28;20560;-78
2022/06/09 04:17:21;;;;;;;6.30;5.70;;;14.20;99.90;;;13.43;92.76;97401.78;4980580;28;20511;-77
2022/06/09 04:19:48;;;;;;;6.67;6.17;;;14.40;99.90;;;13.36;92.95;97404.66;4990545;28;20524;-78
2022/06/09 04:22:15;;;;;;;7.27;6.57;;;14.40;99.10;;;13.41;92.99;97409.31;4983340;28;20560;-77
2022/06/09 04:24:43;;;;;;;6.90;6.20;;;14.40;99.10;;;13.41;92.92;97410.16;4990363;28;21350;-77
2022/06/09 04:27:10;;;;;;;6.63;6.03;;;14.40;98.90;;;13.43;92.79;97412.63;4985069;28;20476;-78
2022/06/09 04:29:38;;;;;;;7.50;6.80;;;14.50;98.60;;;13.60;91.83;97410.72;4985923;28;20483;-77
2022/06/09 04:32:06;;;;;;;7.67;7.07;;;14.50;98.40;;;13.51;92.21;97412.22;4999871;28;21017;-76
2022/06/09 04:34:34;;;;;;;7.90;7.23;;;14.50;98.70;;;13.23;93.51;97419.34;4995672;28;21144;-76
2022/06/09 04:37:02;;;;;;;7.80;7.20;;;14.30;99.10;;;13.20;93.74;97414.44;4984392;28;20574;-76
2022/06/09 04:39:29;;;;;;;7.70;7.00;;;14.20;99.90;;;13.38;93.03;97426.09;4996188;28;20494;-81
2022/06/09 04:41:58;;;;;;;8.63;7.80;;;14.30;99.90;;;13.33;93.40;97413.25;5016997;28;20480;-78
2022/06/09 04:44:25;;;;;;;9.80;8.90;;;14.40;99.90;;;13.24;93.93;97420.19;4997508;28;20464;-78
2022/06/09 04:46:53;;;;;;;8.87;8.07;;;14.30;99.90;;;13.27;93.67;97420.53;5026227;28;20479;-78
2022/06/09 04:49:20;;;;;;;8.23;7.47;;;14.30;99.90;;;13.42;92.37;97414.50;4995106;28;20455;-79
2022/06/09 04:51:49;;;;;;;8.40;7.70;;;14.40;99.20;;;13.39;92.72;97425.03;4994837;28;20510;-78
2022/06/09 04:54:16;;;;;;;8.90;8.00;;;14.40;98.80;;;13.37;93.14;97430.72;5034183;28;20459;-79
2022/06/09 04:56:44;;;;;;;7.43;6.77;;;14.40;98.90;;;13.50;93.28;97429.56;4987276;28;21024;-79
2022/06/09 04:59:11;;;;;;;8.80;8.07;;;14.40;99.90;;;13.32;93.38;97433.31;4990736;28;20541;-78
2022/06/09 05:01:38;;;;;;;9.07;8.27;;;14.40;99.70;;;13.36;93.59;97445.34;4983376;28;20557;-79
2022/06/09 05:04:06;;;;;;;10.13;8.13;;;14.40;99.90;;;13.49;93.08;97433.34;4986561;28;20465;-78
2022/06/09 05:06:33;;;;;;;8.50;7.70;;;14.50;99.40;;;13.45;93.46;97427.59;4999106;28;20468;-78
2022/06/09 05:09:02;;;;;;;8.67;7.97;;;14.50;99.90;;;13.32;91.97;97385.31;4982435;28;20828;-79
2022/06/09 05:11:29;;;;;;;8.43;7.73;;;14.60;98.70;;;13.50;92.11;97440.41;5014239;28;20461;-78
2022/06/09 05:13:56;;;;;;;10.47;9.67;;;14.60;98.00;;;13.56;93.26;97442.13;5006009;28;20463;-72
2022/06/09 05:16:24;;;;;;;8.70;7.90;;;14.50;99.90;;;13.78;91.78;97452.22;4982459;28;20817;-73
2022/06/09 05:18:51;;;;;;;9.83;8.93;;;14.70;98.60;;;13.76;91.05;97448.94;4986245;28;20488;-73
2022/06/09 05:21:19;;;;;;;10.63;9.63;;;14.70;97.10;;;13.77;91.03;97445.16;4995868;28;20462;-73
2022/06/09 05:23:46;;;;;;;11.13;10.13;;;14.80;97.30;;;13.91;90.95;97452.94;4976246;28;20471;-73
2022/06/09 05:26:16;;;;;;;9.90;9.07;;;14.80;97.10;;;13.99;90.50;97457.91;4985063;28;20466;-71
2022/06/09 05:28:44;;;;;;;9.83;9.03;;;14.90;96.50;;;14.17;89.66;97459.53;4981759;28;20484;-75
2022/06/09 05:31:11;;;;;;;10.30;9.40;;;15.10;96.20;;;14.30;88.55;97463.75;5008499;28;20460;-74
2022/06/09 05:33:38;;;;;;;9.80;8.90;;;15.20;95.20;;;14.13;88.94;97470.06;4971723;28;20546;-75
2022/06/09 05:36:06;;;;;;;10.60;9.50;;;15.20;95.10;;;14.09;89.24;97474.38;4974732;28;20451;-72
2022/06/09 05:46:50;;;;;;;9.73;8.83;;;15.30;94.90;;;14.71;87.01;97488.72;4982480;28;20474;-75
2022/06/09 05:49:19;;;;;;;10.80;9.37;;;15.60;94.20;;;14.34;85.92;97435.00;5008747;28;20558;-73
2022/06/09 05:51:47;;;;;;;11.33;10.30;;;15.60;93.10;;;14.51;86.51;97489.28;4976289;28;20466;-73
2022/06/09 05:54:15;;;;;;;10.27;9.37;;;15.50;93.40;;;14.41;86.44;97487.25;4975108;28;20470;-73
2022/06/09 05:56:44;;;;;;;10.30;9.50;;;15.40;93.30;;;14.46;86.61;97483.78;4980450;28;20447;-73
2022/06/09 05:59:11;;;;;;;9.87;9.07;;;15.40;93.70;;;14.73;85.52;97489.28;4984379;28;20483;-81
2022/06/09 06:01:38;;;;;;;10.47;9.57;;;15.60;92.90;;;14.72;84.42;97493.06;4973575;28;20811;-70
2022/06/09 06:04:08;;;;;;;10.23;9.33;;;15.70;92.20;;;14.63;85.31;97494.56;5010254;28;20604;-71
2022/06/09 06:06:34;;;;;;;9.53;8.83;;;15.70;92.40;;;14.49;86.58;97504.22;4982489;28;20527;-74
2022/06/09 06:09:05;;;;;;;9.50;8.80;;;15.50;93.10;;;14.40;86.06;97469.31;4979154;28;20454;-71
2022/06/09 06:11:34;;;;;;;10.17;9.23;;;15.50;93.30;;;14.69;84.74;97488.13;4977255;28;20678;-69
2022/06/09 06:14:03;;;;;;;9.87;8.97;;;15.70;92.50;;;14.85;83.84;97508.16;5017187;28;20754;-75
2022/06/09 06:16:30;;;;;;;9.50;8.47;;;15.80;91.80;;;14.96;82.87;97519.97;4979336;28;20465;-70
2022/06/09 06:18:58;;;;;;;9.37;8.33;;;15.80;91.30;;;14.92;82.57;97510.66;4984155;28;20480;-71
2022/06/09 06:21:25;;;;;;;8.50;7.57;;;15.80;91.00;;;14.97;82.19;97520.78;5004432;28;21242;-67
2022/06/09 06:23:55;;;;;;;8.43;7.70;;;15.80;90.90;;;14.92;82.33;97523.47;4976288;28;20570;-74
2022/06/09 06:26:22;;;;;;;7.60;7.00;;;15.90;90.70;;;14.83;82.86;97525.81;4980827;28;20454;-74
2022/06/09 06:28:50;;;;;;;7.33;6.70;;;15.80;90.70;;;14.81;82.91;97528.78;4987194;28;20484;-71
2022/06/09 06:31:19;;;;;;;7.90;7.10;;;15.80;90.90;;;14.80;82.46;97531.78;4982143;28;20942;-72
2022/06/09 06:33:47;;;;;;;7.40;6.80;;;15.70;90.90;;;15.05;81.85;97533.09;4991425;28;20572;-70
2022/06/09 06:36:14;;;;;;;6.27;5.77;;;15.90;90.60;;;15.29;79.76;97528.16;4985402;28;20454;-73
2022/06/09 06:38:42;;;;;;;7.17;5.83;;;16.10;89.40;;;15.43;78.59;97525.84;4989171;28;20473;-78
2022/06/09 06:41:12;;;;;;;6.13;5.53;;;16.30;87.90;;;15.92;76.82;97522.19;5012769;28;20458;-73
2022/06/09 06:43:40;;;;;;;6.17;5.20;;;16.60;87.00;;;16.02;75.89;97505.06;5035461;27;20470;-71
2022/06/09 06:46:09;;;;;;;8.07;6.80;;;17.00;86.10;;;16.30;74.10;97530.28;4979629;28;20520;-69
2022/06/09 06:48:37;;;;;;;6.57;5.40;;;17.20;84.80;;;16.17;74.08;97536.22;4981626;28;20475;-72
2022/06/09 06:51:06;;;;;;;8.90;5.30;;;17.10;84.40;;;16.29;73.94;97536.81;4979082;28;20678;-69
2022/06/09 06:53:34;;;;;;;5.73;4.97;;;17.20;84.50;;;16.38;73.43;97535.22;4983948;28;20448;-69
2022/06/09 06:56:01;;;;;;;5.70;5.07;;;17.20;84.10;;;16.61;72.78;97535.91;4989161;28;20947;-76
2022/06/09 06:58:29;;;;;;;6.30;5.37;;;17.40;84.00;;;16.84;72.45;97536.50;4984478;28;20475;-71
2022/06/09 07:00:58;;;;;;;6.40;4.90;;;17.60;83.80;;;16.95;71.49;97534.63;4979941;28;20548;-70
2022/06/09 07:03:25;;;;;;;6.30;5.40;;;17.80;83.20;;;16.97;71.35;97533.28;4988254;28;20501;-72
2022/06/09 07:05:54;;;;;;;4.77;3.90;;;17.80;83.00;;;16.99;70.49;97533.84;4993733;28;20467;-69
2022/06/09 07:08:24;;;;;;;3.97;3.57;;;17.90;82.00;;;16.76;71.01;97548.75;4988602;28;20499;-76
2022/06/09 07:10:53;;;;;;;4.70;3.93;;;17.80;82.20;;;16.30;71.89;97552.06;4981257;28;20469;-70
2022/06/09 07:13:21;;;;;;;4.50;3.60;;;17.40;82.10;;;16.10;71.79;97539.19;4979679;28;20471;-71
2022/06/09 07:15:49;;;;;;;6.27;4.33;;;17.10;82.10;;;16.10;71.66;97548.16;4987828;28;21289;-70
2022/06/09 07:18:16;;;;;;;3.60;3.40;;;17.10;82.10;;;15.94;72.85;97543.69;4988426;28;20480;-84
2022/06/09 07:20:44;;;;;;;5.23;3.70;;;16.90;82.30;;;16.04;71.89;97549.22;4998622;28;20555;-73
2022/06/09 07:23:13;;;;;;;4.20;3.37;;;17.00;82.10;;;16.10;70.79;97548.16;4978370;28;20876;-76
2022/06/09 07:25:41;;;;;;;6.40;3.33;;;17.00;81.60;;;16.55;69.53;97548.69;4975691;28;20470;-75
2022/06/09 07:28:08;;;;;;;3.13;2.57;;;17.40;81.30;;;16.54;67.27;97552.50;4978186;28;20918;-75
2022/06/09 07:30:36;;;;;;;3.80;2.63;;;17.50;79.30;;;16.76;66.87;97547.94;4994327;28;20457;-75
2022/06/09 07:33:04;;;;;;;5.40;2.80;;;17.60;79.00;;;16.90;66.23;97546.31;4977336;28;20468;-75
2022/06/09 07:35:36;;;;;;;4.40;3.30;;;17.80;78.50;;;16.90;66.72;97557.25;4979963;28;20471;-75
2022/06/09 07:38:07;;;;;;;3.60;3.10;;;17.80;78.70;;;17.01;66.88;97554.59;4975806;28;20452;-68
2022/06/09 07:40:38;;;;;;;5.07;3.10;;;17.90;78.90;;;17.24;66.12;97550.53;4976082;28;20522;-69
2022/06/09 07:43:05;;;;;;;4.17;2.67;;;18.10;78.70;;;17.16;65.67;97562.81;5008971;28;20460;-70
2022/06/09 07:45:33;;;;;;;3.23;2.57;;;18.10;78.00;;;16.95;65.49;97551.00;4976014;28;20554;-78
2022/06/09 07:48:00;;;;;;;3.73;3.17;;;18.00;77.40;;;17.05;65.42;97555.69;4980557;28;20456;-70
2022/06/09 07:50:29;;;;;;;3.57;3.00;;;17.90;77.40;;;17.40;64.86;97559.59;4979877;28;20463;-71
2022/06/09 07:52:56;;;;;;;4.85;3.17;;;18.20;77.60;;;17.49;64.07;97565.31;4978228;28;20461;-71
2022/06/09 07:55:24;;;;;;;3.30;2.80;;;18.40;76.50;;;17.41;61.89;97559.28;4977067;28;20201;-71
2022/06/09 07:57:54;;;;;;;5.23;2.03;;;18.30;74.60;;;17.88;60.50;97556.56;4980726;28;20549;-70
2022/06/09 08:00:24;;;;;;;4.00;2.50;;;18.70;74.10;;;17.79;59.31;97559.03;4975748;28;20456;-70
2022/06/09 08:02:51;;;;;;;2.20;2.00;;;18.70;72.20;;;17.76;59.95;97558.78;4977666;28;20458;-70
2022/06/09 08:05:22;;;;;;;5.10;2.80;;;18.70;72.20;;;17.42;60.71;97571.06;4978145;28;20460;-70
2022/06/09 08:07:50;;;;;;;3.50;2.50;;;18.40;72.00;;;17.40;59.57;97575.97;4977755;28;20581;-71
2022/06/09 08:10:20;;;;;;;2.93;2.30;;;18.30;71.00;;;17.63;58.50;97566.44;4994952;28;20465;-70
2022/06/09 08:12:49;;;;;;;2.63;2.30;;;18.50;70.60;;;17.91;58.03;97556.03;4978281;28;21263;-68
2022/06/09 08:15:19;;;;;;;4.27;2.00;;;18.70;70.30;;;18.24;56.75;97559.28;4980651;28;20457;-70
2022/06/09 08:17:46;;;;;;;2.57;2.20;;;19.10;69.40;;;18.37;56.35;97571.56;4979251;28;20456;-69
2022/06/09 08:20:15;;;;;;;2.83;2.40;;;19.20;68.60;;;18.30;57.34;97562.00;4981308;28;20582;-70
2022/06/09 08:22:43;;;;;;;2.80;2.10;;;19.20;69.10;;;18.26;58.01;97567.19;4980751;28;20480;-69
2022/06/09 08:25:13;;;;;;;3.13;2.13;;;19.20;69.70;;;17.89;59.02;97573.81;4986976;28;20554;-70
2022/06/09 08:27:41;;;;;;;5.07;2.10;;;18.90;69.80;;;17.92;59.26;97567.78;4977793;28;20457;-70
2022/06/09 08:30:12;;;;;;;4.50;2.70;;;18.90;70.10;;;17.73;59.67;97565.59;4977885;28;20513;-70
2022/06/09 08:32:41;;;;;;;4.83;2.20;;;18.70;70.30;;;18.04;58.00;97584.75;4981530;28;20456;-69
2022/06/09 08:35:13;;;;;;;4.73;2.57;;;18.90;69.30;;;18.09;57.16;97584.72;4988095;28;20468;-69
2022/06/09 08:37:40;;;;;;;5.33;2.10;;;19.00;68.60;;;18.47;56.44;97575.38;4976893;28;20467;-69
2022/06/09 08:40:09;;;;;;;1.73;1.63;;;19.30;68.20;;;18.37;55.16;97530.53;4972534;28;20533;-70
2022/06/09 08:42:49;;;;;;;2.50;1.80;;;19.40;67.00;;;19.03;55.27;97584.47;4976432;28;20568;-69
2022/06/09 08:45:25;;;;;;;2.10;1.83;;;19.70;67.50;;;19.33;53.92;97588.13;4981799;28;20494;-71
2022/06/09 08:47:57;;;;;;;1.60;1.50;;;20.10;66.90;;;19.01;52.51;97575.72;4975898;28;21078;-73
2022/06/09 08:50:29;;;;;;;3.53;1.67;;;20.00;64.10;;;18.88;53.77;97588.91;4977874;28;20470;-73
2022/06/09 08:53:04;;;;;;;4.17;1.83;;;19.80;64.90;;;18.88;54.09;97591.66;4978997;28;20473;-72
2022/06/09 08:55:37;;;;;;;1.70;1.50;;;19.70;65.20;;;18.65;54.29;97596.66;4977443;28;20961;-74
2022/06/09 08:58:15;;;;;;;4.33;2.00;;;19.60;64.90;;;18.21;56.20;97605.50;5012045;28;20467;-71
2022/06/09 09:00:46;;;;;;;5.60;1.87;;;19.30;65.70;;;18.06;56.52;97611.81;4975651;28;20562;-73
2022/06/09 09:03:23;;;;;;;1.73;1.40;;;19.10;66.10;;;17.80;56.23;97618.03;4984529;28;20594;-72
2022/06/09 09:05:58;;;;;;;3.50;1.57;;;18.70;65.60;;;18.06;54.68;97601.69;4979817;28;20461;-72
2022/06/09 09:08:26;;;;;;;4.00;1.50;;;18.90;65.20;;;18.09;53.50;97603.88;5016434;28;20873;-73
2022/06/09 09:11:22;;;;;;;9.83;1.83;;;18.90;63.90;;;18.60;52.42;97610.34;4990765;28;20453;-73
2022/06/09 09:13:59;;;;;;;2.03;1.47;;;19.30;63.10;;;18.91;52.62;97599.28;4981633;28;20483;-72
2022/06/09 09:16:35;;;;;;;2.60;1.80;;;19.60;63.60;;;19.53;51.21;97604.47;4984008;28;20459;-72
2022/06/09 09:19:18;;;;;;;3.07;1.47;;;20.10;63.00;;;19.46;48.47;97612.16;4981374;28;20502;-72
2022/06/09 09:22:01;;;;;;;2.93;1.20;;;20.40;59.60;;;19.13;47.74;97620.03;4981294;28;20449;-74
2022/06/09 09:24:40;;;;;;;2.23;1.33;;;20.00;57.60;;;19.02;49.50;97615.69;4979715;28;20533;-72
2022/06/09 09:27:28;;;;;;;2.60;1.73;;;19.80;59.40;;;19.45;49.66;97618.75;4989316;28;20458;-74
2022/06/09 09:30:04;;;;;;;3.10;1.60;;;20.10;60.50;;;19.18;50.81;97619.97;4985554;28;20877;-74
2022/06/09 09:32:41;;;;;;;2.50;1.90;;;20.10;60.50;;;18.89;52.41;97620.66;4982261;28;21628;-73
2022/06/09 09:35:15;;;;;;;2.17;1.40;;;19.90;61.50;;;19.01;51.48;97625.84;4978904;28;20475;-75
2022/06/09 09:37:46;;;;;;;5.83;1.90;;;19.90;60.90;;;19.44;50.95;97619.84;4975556;28;20470;-72
2022/06/09 09:40:23;;;;;;;1.63;1.30;;;20.20;61.20;;;19.71;49.35;97615.84;4980579;28;20484;-73
2022/06/09 09:42:55;;;;;;;2.57;1.20;;;20.50;59.90;;;19.77;47.25;97616.63;4981206;28;21214;-73
2022/06/09 09:45:32;;;;;;;2.50;1.10;;;20.60;58.30;;;19.66;47.22;97637.81;4978418;28;20542;-73
2022/06/09 09:48:02;;;;;;;2.03;1.23;;;20.70;57.20;;;19.45;47.80;97635.19;4983848;28;20474;-73
2022/06/09 09:50:39;;;;;;;3.07;1.40;;;20.30;57.40;;;19.36;48.32;97628.69;4983885;28;20813;-73
2022/06/09 09:53:25;;;;;;;4.80;1.33;;;20.20;57.60;;;19.24;47.99;97629.84;4980893;28;20467;-73
2022/06/09 09:55:55;;;;;;;2.23;1.23;;;20.10;57.30;;;19.21;48.02;97646.81;4976178;28;20468;-74
2022/06/09 09:58:34;;;;;;;2.33;1.30;;;20.10;57.50;;;19.25;48.82;97642.41;4984579;28;20459;-74
2022/06/09 10:01:06;;;;;;;7.27;1.43;;;20.10;57.80;;;19.35;49.10;97643.47;4991574;28;20488;-73
2022/06/09 10:09:24;;;;;;;3.70;1.63;;;19.80;58.50;;;18.81;50.59;97605.63;4984981;28;20471;-73
2022/06/09 10:11:56;;;;;;;5.67;1.80;;;19.90;59.20;;;19.28;49.95;97634.75;4978448;28;20490;-73
2022/06/09 10:14:41;;;;;;;2.30;1.57;;;20.10;59.00;;;19.34;50.20;97647.31;4981169;28;20924;-74
2022/06/09 10:17:33;;;;;;;3.90;1.90;;;20.20;58.90;;;19.64;50.15;97645.50;4975808;28;20496;-73
2022/06/09 10:20:13;;;;;;;2.57;1.70;;;20.40;59.30;;;19.45;48.77;97617.94;4974228;28;20469;-74
2022/06/09 10:22:46;;;;;;;4.30;1.70;;;20.60;58.60;;;19.89;49.28;97651.88;4989579;28;20740;-75
2022/06/09 10:25:23;;;;;;;2.00;1.30;;;20.60;58.80;;;20.29;46.99;97643.63;4981136;28;20513;-73
2022/06/09 10:28:00;;;;;;;2.70;1.30;;;21.10;57.50;;;20.15;46.89;97648.97;4979143;28;20552;-73
2022/06/09 10:30:35;;;;;;;2.13;1.23;;;21.00;56.80;;;20.35;47.03;97654.28;4981041;28;20473;-74
2022/06/09 10:33:12;;;;;;;2.73;1.40;;;21.10;57.10;;;20.03;47.43;97655.66;4980464;28;20499;-73
2022/06/09 10:35:47;;;;;;;2.50;1.17;;;20.90;57.20;;;20.00;47.58;97650.75;4980500;28;20471;-74
2022/06/09 10:38:25;;;;;;;2.53;1.70;;;20.80;57.30;;;19.44;49.81;97644.50;4984889;28;20512;-74
2022/06/09 10:40:56;;;;;;;2.13;2.03;;;20.50;58.10;;;18.84;51.30;97675.38;4975093;28;20553;-74
2022/06/09 10:43:32;;;;;;;2.27;1.70;;;19.90;58.80;;;18.84;51.65;97661.72;4979261;28;20453;-74
2022/06/09 10:46:05;;;;;;;5.37;2.10;;;19.70;59.40;;;19.34;51.03;97666.50;5012244;28;20483;-74
2022/06/09 10:57:19;;;;;;;3.20;1.90;;;20.20;58.40;;;19.68;48.85;97668.50;4988748;28;20461;-74